Disclaimer

Please do not use the information listed here in-flight or in-navigation, as they are not provided to us by the airports but are provided by volunteers, so they might be outdated.

Search


Regions


Airport information page

Radio informations:
Tower (TWR) - 118.925 MHz
PREFLIGHT - 121.95 MHz
Ground (GND) - 121.9 MHz
DE GAULLE DEP - 124.35 MHz
Automatic Terminal Information Service (ATIS) - 120.0 MHz
DE GAULLE APP - 121.15 MHz

Airport informations:
Latitude: 48° 58' 10.00" N
Longitude: 002° 26' 29.00" E
Elevation: 218 feet - 66 meters
Operating hours: 24 hour operations
Operating agency: Civil government, landing fees and diplomatic clearance may be required
Timezone: UTC+1(+2DT) - Last Sunday in March to last Sunday in October
Fuel: Jet A1, without icing nhibitor.

100/130 MIL Spec, low lead, aviation gasoline (BLUE)

Runway information:
03/21 - 8743 x 197 feet< - >2665 x 60 meters
07/25 - 9843 x 148 feet< - >3000 x 45 meters
09/27 - 6053 x 148 feet< - >1845 x 45 meters

Recent METARs:
LFPB 151730Z AUTO 13013KT 5000 -RA BR FEW014/// BKN020/// BKN045/// ///TCU 01/M01 Q1014 TEMPO 15015G25KT RA BKN002
LFPB 151800Z AUTO 14013KT 7000 -RA SCT014/// OVC020/// ///TCU 01/M01 Q1014 TEMPO 15015G25KT 3000 RA BKN002
LFPB 151830Z AUTO 13011KT 5000 -RA BR BKN013/// OVC018/// ///CB 01/M01 Q1013 TEMPO 15015G25KT RA BKN002

Airport on the map: